Time;durP1;ratioP1;P1;durP2;ratioP2;P2;SDS_P1;SDS_P2;PMS_P1;PMS_P2;Temp;Humidity;BMP_temperature;BMP_pressure;BME280_temperature;BME280_humidity;BME280_pressure;Samples;Min_cycle;Max_cycle;Signal;HPM_P1;HPM_P2
2022/12/14 00:01:26;;;;;;;15.77;10.10;;;8.80;79.30;;;;;;6127043;23;20379;-78
2022/12/14 00:03:53;;;;;;;15.90;11.18;;;8.80;79.30;;;;;;6124826;23;20417;-78
2022/12/14 00:06:23;;;;;;;19.42;11.57;;;8.80;79.20;;;;;;6124735;23;20088;-78
2022/12/14 00:08:50;;;;;;;16.08;11.10;;;8.80;79.20;;;;;;6126456;23;20029;-76
2022/12/14 00:11:16;;;;;;;16.42;10.60;;;8.80;79.10;;;;;;6126259;23;20438;-78
2022/12/14 00:13:42;;;;;;;15.05;10.85;;;8.80;79.10;;;;;;6124718;23;20009;-78
2022/12/14 00:16:14;;;;;;;15.55;10.32;;;8.80;79.20;;;;;;6126702;23;20002;-78
2022/12/14 00:18:39;;;;;;;15.55;10.85;;;8.80;79.10;;;;;;6127417;23;20084;-78
2022/12/14 00:21:11;;;;;;;15.55;10.43;;;8.80;79.10;;;;;;6124611;23;20391;-79
2022/12/14 00:23:38;;;;;;;15.00;10.00;;;8.80;79.20;;;;;;6126042;23;20006;-78
2022/12/14 00:26:30;;;;;;;15.52;10.65;;;8.80;79.10;;;;;;6126815;23;20006;-78
2022/12/14 00:28:56;;;;;;;16.17;10.80;;;8.80;79.30;;;;;;6122793;23;20020;-77
2022/12/14 00:31:23;;;;;;;15.40;10.20;;;8.80;79.10;;;;;;6126617;23;20006;-78
2022/12/14 00:33:49;;;;;;;15.50;10.65;;;8.80;79.00;;;;;;6126468;23;20398;-78
2022/12/14 00:36:15;;;;;;;16.15;10.63;;;8.80;79.10;;;;;;6125620;23;20385;-77
2022/12/14 00:38:41;;;;;;;15.35;10.15;;;8.80;79.10;;;;;;6123880;23;20010;-78
2022/12/14 00:41:08;;;;;;;16.20;10.88;;;8.80;79.00;;;;;;6126653;23;20006;-78
2022/12/14 00:43:33;;;;;;;14.93;10.00;;;8.80;79.50;;;;;;6125943;23;20089;-78
2022/12/14 00:45:59;;;;;;;15.00;10.63;;;8.80;79.10;;;;;;6124706;23;20045;-78
2022/12/14 00:48:25;;;;;;;15.25;10.38;;;8.80;79.10;;;;;;6125229;23;20249;-78
2022/12/14 00:50:52;;;;;;;14.77;9.98;;;8.80;79.00;;;;;;6126338;23;20010;-79
2022/12/14 00:53:18;;;;;;;15.48;10.30;;;8.80;79.00;;;;;;6126707;23;20323;-78
2022/12/14 00:55:45;;;;;;;15.25;10.55;;;8.80;79.10;;;;;;6124449;23;20006;-79
2022/12/14 00:58:13;;;;;;;16.02;11.23;;;8.70;78.90;;;;;;6123456;23;20614;-79
2022/12/14 01:00:39;;;;;;;15.50;10.18;;;8.80;79.00;;;;;;6124364;23;20006;-78
2022/12/14 01:03:05;;;;;;;16.25;10.63;;;8.80;79.00;;;;;;6124488;23;20006;-79
2022/12/14 01:05:33;;;;;;;16.50;10.90;;;8.80;79.10;;;;;;6124284;23;20010;-78
2022/12/14 01:07:59;;;;;;;15.80;10.30;;;8.70;79.00;;;;;;6124185;23;20002;-77
2022/12/14 01:10:24;;;;;;;17.45;11.27;;;8.80;79.00;;;;;;6124472;23;20016;-78
2022/12/14 01:12:50;;;;;;;15.32;10.18;;;8.80;79.00;;;;;;6123816;23;20089;-78
2022/12/14 01:15:16;;;;;;;15.70;10.52;;;8.80;79.00;;;;;;6124068;23;20037;-78
2022/12/14 01:17:41;;;;;;;15.60;10.52;;;8.80;79.00;;;;;;6125523;23;20002;-78
2022/12/14 01:20:07;;;;;;;14.15;9.55;;;8.80;79.00;;;;;;6124011;23;20601;-78
2022/12/14 01:22:33;;;;;;;14.88;10.35;;;8.80;79.00;;;;;;6125467;23;20016;-78
2022/12/14 01:24:58;;;;;;;14.82;10.20;;;8.80;78.90;;;;;;6123975;23;20013;-78
2022/12/14 01:27:24;;;;;;;14.27;9.77;;;8.80;78.90;;;;;;6125593;23;20020;-78
2022/12/14 01:29:49;;;;;;;13.90;9.90;;;8.80;79.10;;;;;;6125223;23;20037;-79
2022/12/14 01:32:15;;;;;;;15.68;10.43;;;8.80;78.80;;;;;;6127544;23;20034;-79
2022/12/14 01:34:40;;;;;;;14.85;10.27;;;8.80;79.00;;;;;;6128951;23;20062;-80
2022/12/14 01:37:06;;;;;;;14.88;10.23;;;8.80;79.20;;;;;;6124841;23;20001;-79
2022/12/14 01:39:31;;;;;;;15.07;10.10;;;8.80;79.40;;;;;;6124977;23;19998;-79
2022/12/14 01:41:58;;;;;;;15.55;10.05;;;8.80;79.20;;;;;;6125054;23;20010;-79
2022/12/14 01:44:23;;;;;;;15.68;10.23;;;8.80;79.20;;;;;;6124136;23;20327;-79
2022/12/14 01:46:56;;;;;;;15.00;10.20;;;8.80;79.10;;;;;;6123673;23;20033;-78
2022/12/14 01:49:29;;;;;;;14.63;9.52;;;8.80;79.40;;;;;;6125753;23;20097;-78
2022/12/14 01:52:16;;;;;;;15.27;10.82;;;8.80;79.30;;;;;;6125744;23;20069;-77
2022/12/14 01:54:51;;;;;;;14.23;9.45;;;8.90;79.30;;;;;;6127138;23;20375;-78
2022/12/14 01:57:23;;;;;;;14.80;9.40;;;8.80;79.20;;;;;;6125513;23;20006;-78
2022/12/14 01:59:48;;;;;;;15.30;9.85;;;8.80;79.20;;;;;;6126595;23;20006;-79
2022/12/14 02:02:17;;;;;;;14.55;9.60;;;8.80;79.20;;;;;;6125361;23;20013;-77
2022/12/14 02:04:49;;;;;;;14.13;9.60;;;8.80;79.30;;;;;;6126397;23;20033;-78
2022/12/14 02:07:16;;;;;;;14.50;9.85;;;8.80;79.30;;;;;;6126808;23;20002;-79
2022/12/14 02:09:43;;;;;;;14.93;9.70;;;8.80;79.20;;;;;;6125467;23;20009;-78
2022/12/14 02:12:31;;;;;;;14.88;9.88;;;8.80;79.10;;;;;;6126936;23;19994;-78
2022/12/14 02:14:58;;;;;;;15.40;10.35;;;8.80;79.20;;;;;;6125554;23;20084;-78
2022/12/14 02:21:20;;;;;;;15.35;10.20;;;8.80;79.20;;;;;;6124802;23;20076;-77
2022/12/14 02:24:04;;;;;;;15.05;9.90;;;8.80;79.30;;;;;;6126623;23;20056;-77
2022/12/14 02:26:57;;;;;;;14.80;10.23;;;8.70;79.30;;;;;;6125112;23;20006;-79
2022/12/14 02:29:55;;;;;;;16.50;10.63;;;8.70;79.30;;;;;;6127694;23;20013;-78
2022/12/14 02:32:33;;;;;;;14.05;9.80;;;8.70;79.40;;;;;;6126880;23;20005;-78
2022/12/14 02:35:21;;;;;;;16.42;10.63;;;8.70;79.40;;;;;;6126891;23;19998;-78
2022/12/14 02:38:11;;;;;;;14.45;9.45;;;8.70;79.40;;;;;;6126489;23;19998;-78
2022/12/14 02:41:27;;;;;;;14.45;9.57;;;8.70;79.40;;;;;;6125472;23;20423;-78
2022/12/14 02:44:20;;;;;;;14.20;9.18;;;8.70;79.40;;;;;;6037317;23;20063;-78
2022/12/14 02:47:11;;;;;;;14.88;9.77;;;8.70;79.40;;;;;;6149242;23;20006;-77
2022/12/14 02:49:40;;;;;;;14.63;9.93;;;8.70;79.40;;;;;;6124439;23;20029;-79
2022/12/14 02:52:12;;;;;;;14.82;10.18;;;8.70;79.40;;;;;;6126224;23;19997;-77
2022/12/14 02:54:45;;;;;;;13.90;9.57;;;8.70;79.40;;;;;;6124746;23;20153;-77
2022/12/14 02:57:24;;;;;;;15.05;9.93;;;8.70;79.40;;;;;;6126455;23;20006;-77
2022/12/14 02:59:54;;;;;;;14.35;9.85;;;8.70;79.40;;;;;;6125779;23;20006;-78
2022/12/14 03:02:19;;;;;;;13.98;10.00;;;8.70;79.40;;;;;;6126334;23;20033;-77
2022/12/14 03:04:48;;;;;;;14.77;10.02;;;8.70;79.40;;;;;;6124892;23;20002;-77
2022/12/14 03:07:30;;;;;;;15.70;10.40;;;8.60;79.30;;;;;;6124639;23;20093;-77
2022/12/14 03:10:00;;;;;;;14.45;9.95;;;8.70;79.40;;;;;;6125605;23;20085;-78
2022/12/14 03:12:26;;;;;;;14.65;9.80;;;8.60;79.30;;;;;;6126019;23;20053;-77
2022/12/14 03:14:54;;;;;;;15.05;9.50;;;8.70;79.30;;;;;;6124546;23;20002;-77
2022/12/14 03:17:23;;;;;;;15.38;9.82;;;8.70;79.40;;;;;;6126198;23;20065;-78
2022/12/14 03:19:54;;;;;;;13.50;9.07;;;8.70;79.40;;;;;;6125819;23;20010;-78
2022/12/14 03:22:25;;;;;;;15.37;10.27;;;8.70;79.40;;;;;;6126104;23;20009;-78
2022/12/14 03:24:56;;;;;;;14.43;9.35;;;8.70;79.30;;;;;;6126418;23;20001;-78
2022/12/14 03:27:26;;;;;;;13.18;9.13;;;8.60;79.30;;;;;;6125694;23;20024;-77
2022/12/14 03:29:59;;;;;;;14.25;9.82;;;8.60;79.30;;;;;;6125389;23;20013;-77
2022/12/14 03:32:28;;;;;;;14.43;9.82;;;8.70;79.30;;;;;;6124568;23;20006;-77
2022/12/14 03:34:56;;;;;;;13.35;9.55;;;8.60;79.30;;;;;;6126270;23;20085;-78
2022/12/14 03:37:48;;;;;;;14.60;9.82;;;8.70;79.40;;;;;;6124299;23;20006;-77
2022/12/14 03:40:14;;;;;;;13.77;9.38;;;8.70;79.90;;;;;;6125958;23;20053;-78
2022/12/14 03:43:06;;;;;;;15.35;10.25;;;8.60;79.20;;;;;;6125898;23;20125;-78
2022/12/14 03:45:52;;;;;;;13.98;9.60;;;8.60;79.20;;;;;;6125881;23;20006;-78
2022/12/14 03:48:50;;;;;;;14.95;9.77;;;8.60;79.20;;;;;;6125939;23;20013;-79
2022/12/14 03:51:39;;;;;;;14.27;9.73;;;8.70;79.30;;;;;;6124096;23;20088;-77
2022/12/14 03:54:11;;;;;;;14.75;9.38;;;8.60;79.20;;;;;;6125863;23;20039;-78
2022/12/14 03:56:54;;;;;;;15.40;9.68;;;8.60;79.20;;;;;;6125933;23;20025;-77
2022/12/14 03:59:33;;;;;;;14.52;9.65;;;8.60;79.10;;;;;;6124367;23;20013;-78
2022/12/14 04:02:07;;;;;;;14.27;9.75;;;8.70;79.20;;;;;;6125782;23;20002;-78
2022/12/14 04:04:50;;;;;;;14.05;9.52;;;8.60;79.10;;;;;;6125605;23;20006;-77
2022/12/14 04:07:35;;;;;;;15.10;9.57;;;8.60;79.10;;;;;;6125442;23;20002;-77
2022/12/14 04:18:58;;;;;;;14.13;9.30;;;8.70;79.20;;;;;;6125532;23;20517;-78
2022/12/14 04:21:44;;;;;;;13.18;9.00;;;8.70;79.20;;;;;;6125830;23;20032;-78
2022/12/14 04:27:19;;;;;;;13.98;9.75;;;8.60;79.20;;;;;;6126716;23;20114;-77
2022/12/14 04:29:59;;;;;;;13.65;8.90;;;8.60;79.00;;;;;;6123557;23;20085;-78
2022/12/14 04:32:28;;;;;;;13.32;9.25;;;8.60;79.00;;;;;;6123986;23;20037;-78
2022/12/14 04:35:01;;;;;;;14.13;9.32;;;8.60;79.10;;;;;;6123637;23;20002;-78
2022/12/14 04:37:29;;;;;;;13.75;9.38;;;8.60;79.10;;;;;;6123805;23;20001;-78
2022/12/14 04:40:06;;;;;;;13.25;8.98;;;8.60;79.10;;;;;;6123357;23;20037;-77
2022/12/14 04:42:38;;;;;;;14.13;9.27;;;8.60;79.10;;;;;;6125398;23;20382;-77
2022/12/14 04:45:15;;;;;;;14.45;9.63;;;8.60;79.10;;;;;;6125573;23;20006;-78
2022/12/14 04:47:50;;;;;;;14.27;9.68;;;8.60;79.10;;;;;;6123704;23;20021;-77
2022/12/14 04:50:41;;;;;;;13.05;8.77;;;8.60;79.00;;;;;;6124941;23;20010;-78
2022/12/14 04:53:16;;;;;;;13.43;8.88;;;8.60;79.10;;;;;;6125163;23;20009;-77
2022/12/14 04:55:45;;;;;;;13.70;9.43;;;8.60;79.10;;;;;;6125070;23;19999;-77
2022/12/14 04:58:24;;;;;;;14.60;9.50;;;8.60;79.10;;;;;;6125090;23;20002;-76
2022/12/14 05:01:06;;;;;;;14.38;9.57;;;8.60;79.20;;;;;;6123495;23;20032;-78
2022/12/14 05:03:37;;;;;;;14.77;9.48;;;8.60;79.00;;;;;;6124508;23;20069;-78
2022/12/14 05:06:15;;;;;;;14.00;9.27;;;8.60;79.10;;;;;;6122976;23;20020;-77
2022/12/14 05:08:43;;;;;;;13.73;8.95;;;8.60;79.10;;;;;;6123440;23;20014;-76
2022/12/14 05:11:27;;;;;;;16.08;9.80;;;8.60;79.00;;;;;;6123273;23;20006;-77
2022/12/14 05:13:53;;;;;;;13.98;9.20;;;8.60;79.00;;;;;;6123021;23;20010;-76
2022/12/14 05:16:21;;;;;;;14.55;9.60;;;8.60;78.90;;;;;;6123676;23;20379;-78
2022/12/14 05:18:47;;;;;;;14.35;9.88;;;8.60;79.00;;;;;;6127074;23;20006;-78
2022/12/14 05:23:59;;;;;;;15.48;9.85;;;8.60;78.80;;;;;;6126400;23;20092;-77
2022/12/14 05:26:24;;;;;;;14.40;9.70;;;8.60;78.80;;;;;;6125068;23;20039;-77
2022/12/14 05:28:50;;;;;;;12.02;8.48;;;8.60;79.00;;;;;;6123176;23;20060;-74
2022/12/14 05:31:15;;;;;;;14.15;9.63;;;8.60;78.70;;;;;;6126017;23;20006;-78
2022/12/14 05:33:41;;;;;;;14.25;9.15;;;8.60;78.80;;;;;;6126990;23;20312;-78
2022/12/14 05:36:08;;;;;;;13.30;9.27;;;8.60;78.70;;;;;;6126453;23;20002;-78
2022/12/14 05:38:34;;;;;;;12.30;8.68;;;8.60;78.80;;;;;;6124631;23;20006;-78
2022/12/14 05:40:59;;;;;;;13.85;9.38;;;8.60;78.80;;;;;;6127956;23;20442;-78
2022/12/14 05:43:25;;;;;;;13.70;9.15;;;8.60;78.80;;;;;;6129649;23;20423;-78
2022/12/14 05:46:01;;;;;;;14.40;9.48;;;8.60;78.70;;;;;;6126736;23;20025;-77
2022/12/14 05:48:26;;;;;;;14.25;9.75;;;8.60;78.70;;;;;;6124486;23;20006;-78
2022/12/14 05:50:52;;;;;;;14.02;9.25;;;8.60;78.90;;;;;;6126471;23;20061;-78
2022/12/14 05:53:18;;;;;;;14.95;9.63;;;8.60;78.70;;;;;;6124795;23;20343;-77
2022/12/14 05:55:48;;;;;;;14.65;9.88;;;8.60;78.70;;;;;;6127425;23;20339;-78
2022/12/14 05:58:13;;;;;;;14.52;9.75;;;8.60;78.70;;;;;;6126403;23;20026;-74
2022/12/14 06:00:39;;;;;;;12.30;8.68;;;8.60;78.90;;;;;;6125040;23;20514;-75
2022/12/14 06:03:05;;;;;;;13.90;9.00;;;8.60;78.60;;;;;;6123954;23;20001;-77
2022/12/14 06:05:30;;;;;;;14.02;9.73;;;8.60;78.70;;;;;;6124839;23;20350;-76
2022/12/14 06:07:56;;;;;;;14.20;9.70;;;8.60;78.80;;;;;;6126448;23;20042;-77
2022/12/14 06:10:22;;;;;;;14.13;9.52;;;8.60;78.60;;;;;;6126080;23;20017;-75
2022/12/14 06:12:47;;;;;;;13.65;9.32;;;8.60;78.60;;;;;;6124876;23;20009;-78
2022/12/14 06:15:13;;;;;;;13.68;9.15;;;8.60;78.70;;;;;;6125051;23;20002;-78
2022/12/14 06:17:45;;;;;;;13.70;9.50;;;8.60;78.60;;;;;;6125029;23;20006;-78
2022/12/14 06:20:12;;;;;;;13.95;9.27;;;8.60;78.60;;;;;;6127341;23;20006;-78
2022/12/14 06:22:38;;;;;;;14.25;9.38;;;8.60;78.60;;;;;;6127479;23;20016;-78
2022/12/14 06:25:04;;;;;;;13.48;9.13;;;8.60;78.60;;;;;;6126718;23;20435;-78
2022/12/14 06:27:30;;;;;;;13.52;9.23;;;8.60;78.60;;;;;;6127654;23;20021;-78
2022/12/14 06:29:55;;;;;;;13.88;9.00;;;8.60;78.70;;;;;;6126563;23;20006;-78
2022/12/14 06:32:22;;;;;;;14.70;10.07;;;8.60;78.50;;;;;;6125217;23;20013;-77
2022/12/14 06:34:47;;;;;;;14.65;9.85;;;8.60;78.70;;;;;;6124772;23;20089;-78
2022/12/14 06:37:13;;;;;;;13.38;8.98;;;8.60;78.50;;;;;;6125701;23;20035;-78
2022/12/14 06:39:39;;;;;;;14.57;9.25;;;8.60;78.70;;;;;;6125072;23;20395;-79
2022/12/14 06:42:05;;;;;;;14.30;9.52;;;8.60;78.50;;;;;;6126505;23;20323;-77
2022/12/14 06:44:30;;;;;;;14.15;9.43;;;8.60;78.50;;;;;;6126375;23;20525;-75
2022/12/14 06:46:56;;;;;;;14.52;9.52;;;8.60;78.50;;;;;;6126635;23;20060;-79
2022/12/14 06:49:22;;;;;;;13.93;9.38;;;8.60;78.50;;;;;;6125888;23;20010;-76
2022/12/14 06:51:48;;;;;;;13.10;9.10;;;8.60;78.60;;;;;;6126290;23;20012;-77
2022/12/14 06:54:14;;;;;;;15.30;9.52;;;8.60;78.70;;;;;;6125508;23;20038;-75
2022/12/14 06:56:41;;;;;;;13.45;9.32;;;8.60;78.60;;;;;;6116733;23;20004;-77
2022/12/14 06:59:07;;;;;;;12.90;8.68;;;8.60;78.60;;;;;;6123265;23;20009;-76
2022/12/14 07:01:34;;;;;;;13.82;9.20;;;8.60;78.50;;;;;;6123767;23;20006;-78
2022/12/14 07:04:00;;;;;;;12.48;8.95;;;8.60;78.50;;;;;;6122143;23;20013;-78
2022/12/14 07:06:30;;;;;;;15.10;9.85;;;8.60;78.70;;;;;;6124682;23;19998;-77
2022/12/14 07:08:57;;;;;;;12.98;9.05;;;8.60;78.90;;;;;;6124759;23;20449;-78
2022/12/14 07:11:23;;;;;;;13.32;9.00;;;8.60;79.00;;;;;;6123244;23;20077;-75
2022/12/14 07:13:49;;;;;;;15.25;9.40;;;8.60;79.10;;;;;;6123748;23;19997;-76
2022/12/14 07:16:21;;;;;;;13.27;9.35;;;8.70;79.00;;;;;;6124056;23;20021;-78
2022/12/14 07:18:47;;;;;;;13.32;8.88;;;8.60;79.10;;;;;;6126221;23;19998;-78
2022/12/14 07:21:14;;;;;;;13.15;9.23;;;8.60;79.00;;;;;;6124445;23;20010;-78
2022/12/14 07:23:41;;;;;;;13.80;9.38;;;8.60;79.00;;;;;;6126080;23;20002;-78
2022/12/14 07:26:16;;;;;;;12.88;9.27;;;8.60;78.80;;;;;;6125754;23;20002;-77
2022/12/14 07:28:42;;;;;;;13.57;9.60;;;8.70;78.90;;;;;;6126283;23;20041;-77
2022/12/14 07:31:14;;;;;;;13.98;9.10;;;8.70;79.00;;;;;;6125822;23;20006;-78
2022/12/14 07:33:39;;;;;;;13.63;8.55;;;8.70;79.00;;;;;;6124420;23;20009;-78
2022/12/14 07:36:10;;;;;;;13.50;9.55;;;8.70;78.90;;;;;;6125575;23;19998;-77
2022/12/14 07:38:37;;;;;;;14.02;9.52;;;8.70;79.00;;;;;;6123950;23;20089;-78
2022/12/14 07:41:05;;;;;;;13.77;9.27;;;8.60;78.90;;;;;;6125638;23;20010;-78
2022/12/14 07:43:32;;;;;;;14.02;9.27;;;8.60;79.00;;;;;;6124368;23;20498;-78
2022/12/14 07:46:00;;;;;;;13.68;9.65;;;8.60;78.90;;;;;;6125644;23;20108;-78
2022/12/14 07:48:25;;;;;;;14.07;9.60;;;8.60;79.00;;;;;;6123638;23;20506;-78
2022/12/14 07:50:51;;;;;;;13.30;9.15;;;8.60;79.00;;;;;;6123789;23;20017;-77
2022/12/14 07:53:16;;;;;;;14.95;9.05;;;8.60;79.00;;;;;;6125584;23;19994;-77
2022/12/14 07:55:42;;;;;;;13.48;9.35;;;8.60;79.00;;;;;;6124260;23;20343;-77
2022/12/14 07:58:07;;;;;;;13.52;9.27;;;8.50;79.10;;;;;;6125171;23;20009;-77
2022/12/14 08:00:33;;;;;;;14.50;9.52;;;8.50;79.20;;;;;;6123947;23;20008;-77
2022/12/14 08:02:59;;;;;;;13.93;9.40;;;8.50;79.00;;;;;;6124023;23;20048;-77
2022/12/14 08:05:24;;;;;;;13.55;9.23;;;8.60;79.10;;;;;;6124139;23;20032;-77
2022/12/14 08:07:50;;;;;;;14.55;9.38;;;8.60;79.10;;;;;;6125234;23;20009;-77
2022/12/14 08:10:15;;;;;;;14.93;9.63;;;8.50;79.10;;;;;;6123739;23;20009;-78
2022/12/14 08:12:41;;;;;;;12.82;8.90;;;8.50;79.00;;;;;;6125413;23;20009;-78
2022/12/14 08:15:07;;;;;;;12.77;9.15;;;8.50;79.10;;;;;;6125853;23;20009;-78
2022/12/14 08:17:32;;;;;;;13.55;9.43;;;8.50;79.20;;;;;;6125276;23;20002;-78
2022/12/14 08:19:58;;;;;;;13.98;9.20;;;8.50;79.10;;;;;;6124606;23;20013;-78
2022/12/14 08:22:23;;;;;;;14.00;9.50;;;8.50;79.10;;;;;;6125451;23;20010;-78
2022/12/14 08:24:49;;;;;;;12.60;9.05;;;8.50;79.10;;;;;;6124104;23;20346;-77
2022/12/14 08:27:14;;;;;;;13.43;9.25;;;8.50;79.10;;;;;;6123318;23;20097;-78
2022/12/14 08:29:41;;;;;;;12.73;8.60;;;8.50;79.10;;;;;;6124961;23;20046;-79
2022/12/14 08:32:06;;;;;;;12.35;8.77;;;8.50;79.20;;;;;;6124157;23;20076;-78
2022/12/14 08:34:32;;;;;;;13.60;9.10;;;8.50;79.10;;;;;;6125329;23;19998;-78
2022/12/14 08:36:57;;;;;;;13.38;9.32;;;8.50;79.10;;;;;;6123954;23;20004;-78
2022/12/14 08:39:23;;;;;;;13.18;8.90;;;8.50;79.10;;;;;;6123497;23;20005;-77
2022/12/14 08:41:49;;;;;;;13.93;9.27;;;8.50;79.20;;;;;;6125376;23;20009;-78
2022/12/14 08:44:16;;;;;;;12.95;9.25;;;8.50;79.10;;;;;;6125424;23;20536;-78
2022/12/14 08:46:41;;;;;;;13.38;9.40;;;8.50;79.10;;;;;;6123791;23;20009;-77
2022/12/14 08:49:07;;;;;;;13.38;8.93;;;8.50;79.00;;;;;;6122980;23;20431;-77
2022/12/14 08:51:36;;;;;;;13.45;8.77;;;8.50;79.10;;;;;;6125398;23;20391;-78
2022/12/14 08:54:02;;;;;;;13.80;8.90;;;8.50;79.00;;;;;;6125311;23;20005;-77
2022/12/14 08:56:28;;;;;;;12.48;9.07;;;8.50;79.20;;;;;;6123841;23;20347;-77
2022/12/14 08:58:54;;;;;;;12.90;9.23;;;8.50;79.10;;;;;;6125749;23;20031;-77
2022/12/14 09:01:26;;;;;;;12.13;8.82;;;8.50;79.10;;;;;;6125954;23;20037;-77
2022/12/14 09:03:51;;;;;;;13.13;9.02;;;8.50;79.00;;;;;;6127349;23;20013;-77
2022/12/14 09:06:20;;;;;;;12.63;9.00;;;8.50;79.10;;;;;;6125602;23;20002;-78
2022/12/14 09:08:46;;;;;;;12.57;8.77;;;8.50;79.10;;;;;;6127009;23;20006;-78
2022/12/14 09:11:13;;;;;;;13.15;9.10;;;8.50;79.10;;;;;;6126975;23;20036;-77
2022/12/14 09:13:40;;;;;;;12.27;8.88;;;8.50;79.10;;;;;;6125831;23;20005;-78
2022/12/14 09:16:17;;;;;;;13.25;9.02;;;8.50;79.10;;;;;;6121538;23;20439;-81
2022/12/14 09:18:44;;;;;;;12.52;8.40;;;8.50;79.10;;;;;;6126539;23;20055;-77
2022/12/14 09:21:10;;;;;;;13.38;9.60;;;8.50;79.10;;;;;;6126672;23;20457;-76
2022/12/14 09:23:36;;;;;;;12.23;8.30;;;8.50;79.10;;;;;;6126900;23;20013;-76
2022/12/14 09:26:06;;;;;;;12.65;8.70;;;8.50;79.20;;;;;;6125030;23;20013;-77
2022/12/14 09:28:34;;;;;;;12.90;9.07;;;8.50;79.10;;;;;;6126383;23;20017;-77
2022/12/14 09:31:02;;;;;;;13.05;9.15;;;8.50;79.10;;;;;;6127092;23;20037;-78
2022/12/14 09:33:29;;;;;;;14.75;9.55;;;8.50;79.00;;;;;;6126495;23;20010;-77
2022/12/14 09:36:06;;;;;;;12.88;8.98;;;8.50;79.20;;;;;;6126752;23;20316;-77
2022/12/14 09:38:34;;;;;;;13.00;9.25;;;8.50;78.90;;;;;;6126526;23;20089;-78
2022/12/14 09:41:05;;;;;;;13.85;9.35;;;8.50;78.90;;;;;;6126667;23;20049;-77
2022/12/14 09:44:01;;;;;;;12.85;8.48;;;8.50;79.00;;;;;;6126752;23;20008;-77
2022/12/14 09:46:54;;;;;;;13.02;8.85;;;8.50;78.90;;;;;;6084035;23;20020;-78
2022/12/14 09:49:41;;;;;;;12.80;8.93;;;8.50;78.80;;;;;;6113056;23;20009;-77
2022/12/14 09:52:14;;;;;;;12.82;8.93;;;8.50;78.80;;;;;;6125774;23;19994;-78
2022/12/14 09:54:43;;;;;;;12.45;8.88;;;8.50;78.70;;;;;;6126360;23;20498;-78
2022/12/14 09:57:25;;;;;;;13.20;8.85;;;8.60;78.70;;;;;;6125708;23;20002;-77
2022/12/14 09:59:53;;;;;;;11.82;8.38;;;8.60;78.60;;;;;;6125835;23;20017;-75
2022/12/14 10:02:23;;;;;;;12.43;8.60;;;8.60;78.60;;;;;;6126073;23;20006;-74
2022/12/14 10:04:58;;;;;;;13.32;9.13;;;8.60;78.50;;;;;;6124500;23;20081;-77
2022/12/14 10:07:35;;;;;;;12.95;8.77;;;8.50;78.60;;;;;;6124262;23;20013;-77
2022/12/14 10:10:17;;;;;;;12.77;8.60;;;8.70;78.60;;;;;;6125044;23;20144;-75
2022/12/14 10:13:08;;;;;;;12.98;8.68;;;8.70;78.40;;;;;;6124580;23;20009;-75
2022/12/14 10:15:38;;;;;;;12.63;8.85;;;8.70;78.30;;;;;;6126516;23;20027;-77
2022/12/14 10:18:32;;;;;;;11.82;8.52;;;8.80;78.30;;;;;;6124061;23;20006;-76
2022/12/14 10:21:16;;;;;;;13.07;8.82;;;8.80;78.20;;;;;;6125619;23;20057;-77
2022/12/14 10:23:56;;;;;;;12.73;9.20;;;8.90;78.20;;;;;;6126294;23;20009;-78
2022/12/14 10:26:27;;;;;;;12.88;8.80;;;8.90;78.00;;;;;;6125715;23;20006;-76
2022/12/14 10:29:02;;;;;;;13.60;9.35;;;8.90;78.00;;;;;;6126923;23;20060;-82
2022/12/14 10:32:02;;;;;;;11.77;8.30;;;8.90;77.80;;;;;;6131438;23;20006;-79
2022/12/14 10:34:31;;;;;;;12.75;8.52;;;9.00;77.70;;;;;;6129462;23;20018;-80
2022/12/14 10:37:26;;;;;;;12.20;8.25;;;9.10;77.50;;;;;;6131814;23;20510;-80
2022/12/14 10:40:15;;;;;;;11.60;8.10;;;9.10;77.30;;;;;;6099779;23;20408;-81
2022/12/14 10:42:59;;;;;;;12.38;8.40;;;9.20;76.90;;;;;;6099481;23;20010;-80
2022/12/14 10:45:47;;;;;;;12.57;8.55;;;9.30;76.60;;;;;;6100632;23;20013;-81
2022/12/14 10:48:28;;;;;;;11.80;8.05;;;9.30;76.30;;;;;;6102022;23;20296;-80
2022/12/14 10:51:18;;;;;;;12.52;8.40;;;9.40;76.20;;;;;;6099883;23;20376;-81
2022/12/14 10:54:22;;;;;;;12.13;8.57;;;9.50;76.00;;;;;;6098885;23;20089;-82
2022/12/14 10:56:49;;;;;;;12.30;8.45;;;9.50;75.80;;;;;;6098685;23;20003;-79
2022/12/14 10:59:21;;;;;;;11.57;8.25;;;9.60;75.30;;;;;;6098293;23;20066;-79
2022/12/14 11:01:52;;;;;;;12.07;8.15;;;9.60;75.20;;;;;;6099702;23;20319;-80
2022/12/14 11:04:31;;;;;;;11.88;7.80;;;9.70;75.00;;;;;;6098792;23;19998;-79
2022/12/14 11:07:00;;;;;;;12.20;8.70;;;9.80;74.80;;;;;;6098257;23;20415;-79
2022/12/14 11:09:26;;;;;;;12.27;8.35;;;9.80;74.60;;;;;;6099730;23;19999;-81
2022/12/14 11:12:05;;;;;;;12.18;8.05;;;9.90;74.70;;;;;;6099081;23;20003;-79
2022/12/14 11:14:31;;;;;;;11.68;8.05;;;9.90;74.70;;;;;;6097250;23;20029;-80
2022/12/14 11:16:56;;;;;;;11.80;7.97;;;9.90;74.70;;;;;;6097322;23;20081;-80
2022/12/14 11:19:24;;;;;;;11.80;7.97;;;10.00;74.00;;;;;;6096588;23;20003;-79
2022/12/14 11:22:03;;;;;;;11.50;8.25;;;10.00;74.90;;;;;;6096018;23;20007;-79
2022/12/14 11:24:29;;;;;;;12.00;8.20;;;10.00;74.30;;;;;;6096461;23;20427;-79
2022/12/14 11:27:01;;;;;;;11.43;7.90;;;10.00;74.60;;;;;;6098606;23;20037;-80
2022/12/14 11:29:31;;;;;;;11.63;8.18;;;10.00;75.10;;;;;;6095890;23;20037;-80
2022/12/14 11:31:56;;;;;;;13.35;7.82;;;10.00;74.40;;;;;;6098829;23;20077;-80
2022/12/14 11:34:38;;;;;;;11.50;7.90;;;9.90;75.30;;;;;;6095643;23;20089;-82
2022/12/14 11:37:21;;;;;;;10.85;7.75;;;9.90;75.10;;;;;;6095751;23;20003;-81
2022/12/14 11:39:56;;;;;;;11.40;7.80;;;10.00;75.40;;;;;;6094902;23;20013;-78
2022/12/14 11:42:23;;;;;;;11.50;8.23;;;9.90;75.00;;;;;;6094748;23;20007;-78
2022/12/14 11:44:49;;;;;;;11.00;7.65;;;9.90;75.80;;;;;;6094998;23;20017;-79
2022/12/14 11:47:16;;;;;;;11.23;7.55;;;10.00;75.60;;;;;;6094398;23;20066;-77
2022/12/14 11:49:43;;;;;;;10.80;7.32;;;9.90;75.80;;;;;;6095478;23;20009;-77
2022/12/14 11:52:17;;;;;;;10.65;7.70;;;10.00;75.20;;;;;;6095602;23;20007;-79
2022/12/14 11:55:08;;;;;;;11.27;7.82;;;10.00;75.60;;;;;;6094415;23;20439;-79
2022/12/14 11:57:40;;;;;;;11.18;7.80;;;9.90;75.20;;;;;;6118300;23;20037;-79
2022/12/14 12:00:20;;;;;;;13.25;8.60;;;9.90;74.80;;;;;;6094100;23;20355;-79
2022/12/14 12:03:22;;;;;;;10.95;7.15;;;9.90;74.60;;;;;;6094252;23;20630;-78
2022/12/14 12:05:49;;;;;;;11.07;8.10;;;9.90;74.70;;;;;;6088409;23;20089;-79
2022/12/14 12:08:23;;;;;;;10.70;7.63;;;9.90;74.60;;;;;;6094016;23;20010;-79
2022/12/14 12:10:51;;;;;;;10.75;7.65;;;9.90;74.70;;;;;;6094385;23;20011;-78
2022/12/14 12:13:27;;;;;;;10.98;7.32;;;9.90;74.50;;;;;;6096356;23;20073;-79
2022/12/14 12:15:55;;;;;;;11.18;7.55;;;9.90;74.50;;;;;;6094574;23;20010;-79
2022/12/14 12:18:27;;;;;;;10.45;7.35;;;9.90;74.90;;;;;;6094099;23;20002;-79
2022/12/14 12:21:02;;;;;;;11.15;7.95;;;10.00;75.30;;;;;;6096154;23;20097;-78
2022/12/14 12:23:36;;;;;;;10.27;7.35;;;10.00;75.20;;;;;;6094461;23;20443;-81
2022/12/14 12:26:11;;;;;;;11.30;7.82;;;10.10;75.00;;;;;;6094498;23;20010;-79
2022/12/14 12:28:42;;;;;;;11.27;7.80;;;10.10;75.00;;;;;;6093823;23;20038;-79
2022/12/14 12:31:15;;;;;;;10.52;7.22;;;10.10;74.70;;;;;;6095577;23;20009;-78
2022/12/14 12:33:45;;;;;;;10.50;6.95;;;10.10;74.90;;;;;;6093624;23;20037;-81
2022/12/14 12:36:14;;;;;;;9.93;7.15;;;10.10;74.90;;;;;;6103276;23;20627;-82
2022/12/14 12:39:02;;;;;;;10.73;7.43;;;10.10;75.00;;;;;;6109882;23;19999;-83
2022/12/14 12:41:57;;;;;;;10.65;7.00;;;10.20;74.90;;;;;;6107586;23;20343;-81
2022/12/14 12:44:48;;;;;;;10.85;7.28;;;10.10;74.90;;;;;;6092672;23;20006;-82
2022/12/14 12:47:40;;;;;;;10.35;7.18;;;10.10;74.70;;;;;;6106643;23;20006;-83
2022/12/14 12:50:13;;;;;;;10.05;6.80;;;10.10;74.80;;;;;;6129161;23;20025;-83
2022/12/14 12:52:58;;;;;;;10.98;7.10;;;10.10;75.10;;;;;;6106114;23;20027;-82
2022/12/14 12:55:25;;;;;;;10.55;7.10;;;10.10;75.90;;;;;;6104325;23;20030;-80
2022/12/14 12:57:54;;;;;;;9.15;6.38;;;10.10;76.40;;;;;;6105474;23;20387;-83
2022/12/14 13:00:24;;;;;;;10.27;7.10;;;10.00;76.80;;;;;;6108166;23;20002;-82
2022/12/14 13:03:04;;;;;;;9.75;6.28;;;10.00;77.00;;;;;;6108098;23;19999;-81
2022/12/14 13:05:32;;;;;;;10.25;6.72;;;10.00;76.40;;;;;;6105692;23;20013;-79
2022/12/14 13:08:00;;;;;;;9.25;6.47;;;9.90;76.90;;;;;;6105096;23;20007;-80
2022/12/14 13:10:38;;;;;;;13.00;7.13;;;9.90;76.00;;;;;;6104098;23;20018;-79
2022/12/14 13:13:15;;;;;;;9.82;6.63;;;9.90;76.00;;;;;;6104267;23;20009;-83
2022/12/14 13:15:45;;;;;;;9.50;6.65;;;9.80;75.70;;;;;;6103159;23;20038;-81
2022/12/14 13:18:24;;;;;;;10.05;6.57;;;9.80;75.60;;;;;;6106596;23;20009;-79
2022/12/14 13:20:53;;;;;;;9.90;6.57;;;9.80;75.20;;;;;;6105845;23;20009;-84
2022/12/14 13:23:27;;;;;;;9.70;6.60;;;9.80;75.30;;;;;;6103309;23;20010;-83
2022/12/14 13:26:11;;;;;;;9.88;6.47;;;9.70;75.40;;;;;;6101958;23;20094;-83
2022/12/14 13:28:42;;;;;;;10.05;6.35;;;9.70;75.50;;;;;;6100525;23;20042;-80